createdAt,value
2023-03-10T00:01:18.293Z,0.82
2023-03-10T00:03:19.942Z,1.15
2023-03-10T00:05:21.737Z,0.88
2023-03-10T00:07:23.411Z,1.45
2023-03-10T00:09:25.053Z,1.00
2023-03-10T00:11:26.896Z,1.00
2023-03-10T00:13:28.532Z,0.90
2023-03-10T00:15:31.690Z,0.82
2023-03-10T00:17:33.463Z,0.90
2023-03-10T00:19:35.060Z,1.10
2023-03-10T00:21:36.752Z,0.95
2023-03-10T00:23:38.415Z,0.90
2023-03-10T00:25:40.025Z,1.10
2023-03-10T00:27:42.084Z,1.17
2023-03-10T00:29:43.761Z,0.93
2023-03-10T00:31:45.450Z,1.27
2023-03-10T00:33:47.135Z,1.00
2023-03-10T00:35:48.796Z,0.80
2023-03-10T00:37:50.459Z,0.80
2023-03-10T00:39:53.265Z,0.90
2023-03-10T00:41:54.868Z,0.88
2023-03-10T00:44:00.802Z,1.05
2023-03-10T00:46:02.956Z,0.75
2023-03-10T00:48:04.669Z,1.00
2023-03-10T00:50:06.571Z,1.00
2023-03-10T00:52:08.162Z,1.08
2023-03-10T00:54:10.661Z,0.80
2023-03-10T00:56:21.521Z,0.80
2023-03-10T00:58:23.183Z,0.70
2023-03-10T01:00:24.826Z,0.70
2023-03-10T01:02:26.751Z,0.98
2023-03-10T01:04:28.457Z,0.85
2023-03-10T01:06:30.139Z,0.98
2023-03-10T01:08:31.920Z,0.90
2023-03-10T01:10:33.564Z,0.70
2023-03-10T01:12:35.240Z,0.88
2023-03-10T01:14:37.153Z,0.90
2023-03-10T01:16:38.825Z,0.90
2023-03-10T01:18:40.887Z,0.82
2023-03-10T01:20:43.040Z,1.00
2023-03-10T01:22:44.897Z,1.27
2023-03-10T01:24:46.566Z,1.10
2023-03-10T01:26:48.218Z,1.05
2023-03-10T01:28:50.118Z,1.00
2023-03-10T01:30:51.796Z,0.80
2023-03-10T01:32:53.458Z,0.80
2023-03-10T01:34:55.165Z,0.77
2023-03-10T01:36:56.793Z,0.80
2023-03-10T01:38:58.599Z,0.93
2023-03-10T01:41:00.325Z,0.93
2023-03-10T01:43:19.812Z,0.80
2023-03-10T01:45:21.358Z,0.80
2023-03-10T01:47:23.061Z,0.73
2023-03-10T01:49:29.996Z,0.68
2023-03-10T01:51:34.944Z,0.88
2023-03-10T01:53:36.545Z,0.90
2023-03-10T01:55:42.162Z,1.00
2023-03-10T01:57:47.361Z,0.80
2023-03-10T01:59:50.937Z,0.80
2023-03-10T02:01:53.066Z,0.93
2023-03-10T02:03:59.230Z,0.80
2023-03-10T02:06:06.428Z,0.90
2023-03-10T02:08:09.686Z,0.85
2023-03-10T02:10:12.878Z,1.00
2023-03-10T02:12:15.629Z,1.38
2023-03-10T02:14:17.950Z,0.90
2023-03-10T02:16:19.951Z,1.10
2023-03-10T02:18:22.390Z,0.90
2023-03-10T02:20:35.652Z,1.23
2023-03-10T02:22:39.013Z,0.82
2023-03-10T02:24:44.487Z,1.00
2023-03-10T02:26:53.537Z,1.30
2023-03-10T02:28:57.208Z,0.88
2023-03-10T02:30:58.913Z,0.70
2023-03-10T02:33:08.121Z,0.85
2023-03-10T02:35:10.135Z,1.10
2023-03-10T02:37:20.552Z,1.13
2023-03-10T02:39:22.224Z,1.13
2023-03-10T02:41:27.897Z,0.80
2023-03-10T02:43:32.269Z,0.80
2023-03-10T02:45:36.533Z,1.08
2023-03-10T02:47:38.215Z,0.80
2023-03-10T02:49:40.811Z,1.00
2023-03-10T02:51:44.845Z,0.80
2023-03-10T02:53:46.512Z,1.10
2023-03-10T02:55:48.786Z,1.35
2023-03-10T02:57:50.495Z,1.73
2023-03-10T02:59:52.182Z,1.30
2023-03-10T03:01:53.799Z,1.20
2023-03-10T03:03:55.620Z,0.90
2023-03-10T03:05:57.653Z,0.90
2023-03-10T03:07:59.587Z,1.27
2023-03-10T03:10:01.277Z,1.05
2023-03-10T03:12:03.106Z,1.08
2023-03-10T03:14:04.753Z,1.13
2023-03-10T03:16:10.394Z,1.77
2023-03-10T03:18:12.033Z,1.10
2023-03-10T03:20:14.466Z,1.23
2023-03-10T03:22:16.180Z,0.88
2023-03-10T03:24:18.704Z,1.27
2023-03-10T03:26:23.680Z,1.30
2023-03-10T03:28:25.552Z,1.88
2023-03-10T03:30:28.432Z,1.20
2023-03-10T03:32:30.137Z,1.40
2023-03-10T03:34:31.899Z,1.10
2023-03-10T03:36:33.596Z,1.00
2023-03-10T03:38:35.280Z,1.30
2023-03-10T03:40:37.585Z,1.10
2023-03-10T03:42:43.486Z,1.33
2023-03-10T03:44:45.121Z,1.40
2023-03-10T03:46:46.896Z,1.35
2023-03-10T03:48:48.547Z,1.30
2023-03-10T03:50:50.671Z,1.40
2023-03-10T03:52:52.428Z,1.38
2023-03-10T03:54:54.166Z,0.98
2023-03-10T03:56:55.805Z,2.38
2023-03-10T03:58:58.032Z,1.38
2023-03-10T04:00:59.701Z,1.42
2023-03-10T04:03:01.927Z,1.35
2023-03-10T04:05:04.768Z,1.40
2023-03-10T04:07:06.446Z,1.33
2023-03-10T04:09:10.673Z,1.75
2023-03-10T04:11:12.322Z,1.98
2023-03-10T04:13:13.978Z,1.88
2023-03-10T04:15:16.026Z,1.45
2023-03-10T04:17:17.768Z,1.25
2023-03-10T04:19:19.359Z,1.35
2023-03-10T04:21:20.966Z,1.15
2023-03-10T04:23:22.640Z,1.00
2023-03-10T04:25:24.337Z,1.13
2023-03-10T04:27:25.945Z,1.10
2023-03-10T04:29:27.662Z,1.33
2023-03-10T04:31:29.309Z,1.58
2023-03-10T04:33:31.079Z,1.00
2023-03-10T04:35:32.872Z,1.27
2023-03-10T04:37:35.096Z,1.10
2023-03-10T04:39:37.406Z,1.60
2023-03-10T04:41:39.009Z,1.10
2023-03-10T04:43:42.658Z,1.48
2023-03-10T04:45:44.911Z,1.50
2023-03-10T04:47:46.540Z,2.28
2023-03-10T04:49:48.190Z,1.25
2023-03-10T04:51:49.784Z,2.10
2023-03-10T04:53:51.613Z,1.30
2023-03-10T04:55:53.242Z,1.30
2023-03-10T04:57:54.891Z,1.85
2023-03-10T04:59:56.549Z,1.50
2023-03-10T05:01:58.289Z,1.70
2023-03-10T05:04:00.882Z,2.75
2023-03-10T05:06:03.079Z,1.60
2023-03-10T05:08:05.338Z,1.27
2023-03-10T05:10:07.630Z,1.83
2023-03-10T05:12:10.656Z,1.30
2023-03-10T05:14:13.114Z,1.30
2023-03-10T05:16:16.571Z,1.65
2023-03-10T05:18:18.372Z,1.50
2023-03-10T05:20:20.559Z,1.17
2023-03-10T05:22:22.208Z,1.65
2023-03-10T05:24:23.938Z,1.20
2023-03-10T05:26:26.068Z,1.45
2023-03-10T05:28:27.805Z,1.15
2023-03-10T05:30:29.405Z,1.20
2023-03-10T05:32:31.549Z,2.30
2023-03-10T05:34:33.532Z,1.50
2023-03-10T05:36:35.203Z,1.85
2023-03-10T05:38:37.446Z,2.58
2023-03-10T05:40:41.336Z,1.48
2023-03-10T05:42:42.962Z,1.35
2023-03-10T05:44:44.583Z,1.30
2023-03-10T05:46:46.301Z,2.47
2023-03-10T05:48:48.102Z,1.73
2023-03-10T05:51:22.092Z,1.42
2023-03-10T05:53:23.772Z,1.33
2023-03-10T05:55:28.631Z,1.65
2023-03-10T05:57:30.288Z,1.65
2023-03-10T05:59:31.976Z,1.50
2023-03-10T06:01:33.739Z,1.83
2023-03-10T06:03:36.833Z,1.73
2023-03-10T06:05:38.581Z,1.60
2023-03-10T06:07:40.586Z,1.58
2023-03-10T06:09:42.286Z,1.60
2023-03-10T06:11:43.910Z,1.65
2023-03-10T06:13:45.687Z,1.63
2023-03-10T06:15:56.052Z,2.05
2023-03-10T06:18:00.866Z,1.77
2023-03-10T06:20:02.845Z,2.17
2023-03-10T06:22:04.573Z,2.17
2023-03-10T06:24:06.411Z,1.50
2023-03-10T06:26:11.925Z,1.35
2023-03-10T06:28:13.807Z,1.83
2023-03-10T06:30:16.527Z,1.98
2023-03-10T06:32:18.257Z,1.92
2023-03-10T06:34:19.933Z,1.38
2023-03-10T06:36:23.184Z,1.67
2023-03-10T06:38:24.949Z,1.50
2023-03-10T06:40:26.616Z,1.58
2023-03-10T06:42:28.301Z,1.30
2023-03-10T06:44:29.947Z,1.58
2023-03-10T06:46:31.648Z,1.60
2023-03-10T06:48:34.381Z,1.20
2023-03-10T06:50:36.153Z,1.35
2023-03-10T06:52:37.912Z,0.93
2023-03-10T06:54:39.500Z,1.10
2023-03-10T06:56:41.159Z,1.05
2023-03-10T06:58:43.558Z,1.45
2023-03-10T07:00:45.200Z,0.90
2023-03-10T07:02:46.986Z,0.88
2023-03-10T07:04:48.688Z,1.35
2023-03-10T07:06:50.516Z,1.00
2023-03-10T07:08:53.382Z,0.90
2023-03-10T07:10:56.006Z,0.82
2023-03-10T07:12:59.063Z,1.10
2023-03-10T07:15:00.839Z,0.90
2023-03-10T07:17:03.294Z,0.73
2023-03-10T07:19:04.982Z,0.90
2023-03-10T07:21:11.851Z,0.80
2023-03-10T07:23:13.712Z,1.13
2023-03-10T07:25:15.343Z,1.00
2023-03-10T07:27:16.964Z,1.00
2023-03-10T07:29:18.645Z,0.70
2023-03-10T07:31:20.622Z,0.82
2023-03-10T07:33:22.327Z,1.00
2023-03-10T07:35:23.930Z,1.00
2023-03-10T07:37:25.534Z,0.90
2023-03-10T07:39:27.159Z,1.23
2023-03-10T07:41:28.769Z,1.17
2023-03-10T07:43:31.044Z,0.88
2023-03-10T07:45:33.660Z,0.80
2023-03-10T07:47:35.379Z,1.05
2023-03-10T07:49:37.326Z,1.10
2023-03-10T07:51:38.982Z,1.20
2023-03-10T07:53:40.805Z,1.15
2023-03-10T07:55:42.473Z,1.25
2023-03-10T07:57:44.237Z,1.75
2023-03-10T07:59:45.950Z,1.42
2023-03-10T08:01:47.677Z,1.40
2023-03-10T08:07:11.052Z,1.67
2023-03-10T08:09:13.229Z,1.77
2023-03-10T08:11:15.266Z,2.10
2023-03-10T08:13:17.178Z,2.05
2023-03-10T08:15:18.987Z,1.85
2023-03-10T08:17:20.663Z,2.10
2023-03-10T08:19:23.925Z,1.70
2023-03-10T08:21:25.570Z,1.35
2023-03-10T08:23:27.257Z,2.53
2023-03-10T08:25:28.832Z,1.40
2023-03-10T08:27:30.467Z,1.77
2023-03-10T08:29:32.286Z,1.20
2023-03-10T08:31:34.056Z,1.48
2023-03-10T08:33:36.257Z,1.50
2023-03-10T08:35:38.374Z,1.25
2023-03-10T08:37:41.287Z,1.38
2023-03-10T08:39:44.641Z,1.55
2023-03-10T08:41:49.186Z,1.55
2023-03-10T08:43:52.465Z,1.20
2023-03-10T08:45:54.052Z,1.45
2023-03-10T08:47:55.694Z,1.58
2023-03-10T08:49:57.321Z,1.30
2023-03-10T08:52:00.148Z,1.30
2023-03-10T08:54:02.070Z,1.45
2023-03-10T08:56:04.412Z,1.52
2023-03-10T08:58:06.105Z,1.52
2023-03-10T09:00:12.713Z,1.38
2023-03-10T09:02:15.422Z,2.50
2023-03-10T09:04:17.410Z,0.95
2023-03-10T09:06:19.821Z,1.58
2023-03-10T09:08:22.088Z,1.15
2023-03-10T09:10:23.751Z,1.50
2023-03-10T09:12:27.615Z,1.52
2023-03-10T09:14:31.113Z,1.90
2023-03-10T09:16:33.869Z,1.60
2023-03-10T09:18:35.871Z,1.98
2023-03-10T09:20:38.401Z,2.33
2023-03-10T09:22:40.055Z,2.88
2023-03-10T09:24:41.683Z,2.50
2023-03-10T09:26:44.770Z,2.25
2023-03-10T09:28:49.381Z,1.92
2023-03-10T09:30:51.141Z,1.45
2023-03-10T09:32:53.221Z,1.10
2023-03-10T09:34:54.852Z,1.10
2023-03-10T09:36:59.003Z,1.23
2023-03-10T09:39:01.247Z,0.93
2023-03-10T09:41:16.540Z,0.80
2023-03-10T09:43:19.752Z,0.90
2023-03-10T09:45:44.780Z,1.17
2023-03-10T09:48:03.208Z,0.90
2023-03-10T09:50:15.070Z,1.30
2023-03-10T09:52:26.771Z,1.38
2023-03-10T09:54:28.467Z,1.10
2023-03-10T09:56:34.406Z,1.67
2023-03-10T09:59:00.982Z,1.25
2023-03-10T10:01:03.985Z,1.35
2023-03-10T10:03:20.037Z,1.15
2023-03-10T10:05:26.493Z,0.90
2023-03-10T10:07:32.433Z,0.98
2023-03-10T10:09:46.850Z,1.02
2023-03-10T10:11:48.532Z,1.20
2023-03-10T10:13:51.919Z,1.30
2023-03-10T10:16:21.423Z,0.80
2023-03-10T10:18:40.151Z,0.90
2023-03-10T10:21:00.842Z,1.15
2023-03-10T10:23:03.405Z,1.10
2023-03-10T10:25:08.395Z,0.90
2023-03-10T10:27:10.466Z,1.42
2023-03-10T10:29:22.331Z,1.13
2023-03-10T10:31:32.892Z,1.02
2023-03-10T10:33:55.444Z,1.20
2023-03-10T10:36:02.382Z,1.10
2023-03-10T10:38:05.883Z,1.00
2023-03-10T10:40:23.257Z,1.00
2023-03-10T10:42:28.101Z,1.38
2023-03-10T10:44:30.297Z,1.20
2023-03-10T10:49:47.496Z,1.10
2023-03-10T10:52:24.437Z,0.95
2023-03-10T10:54:29.093Z,0.85
2023-03-10T10:56:31.203Z,1.00
2023-03-10T10:58:38.292Z,0.90
2023-03-10T11:00:41.656Z,1.08
2023-03-10T11:02:43.680Z,0.70
2023-03-10T11:04:46.581Z,0.93
2023-03-10T11:06:50.116Z,1.27
2023-03-10T11:08:52.470Z,1.00
2023-03-10T11:11:00.594Z,0.73
2023-03-10T11:13:19.704Z,0.95
2023-03-10T11:15:33.095Z,0.95
2023-03-10T11:18:13.225Z,1.10
2023-03-10T11:20:24.519Z,1.40
2023-03-10T11:22:47.000Z,1.67
2023-03-10T11:25:24.767Z,0.90
2023-03-10T11:27:38.617Z,1.10
2023-03-10T11:29:58.208Z,0.95
2023-03-10T11:32:05.856Z,1.20
2023-03-10T11:34:30.740Z,0.88
2023-03-10T11:37:00.938Z,1.17
2023-03-10T11:39:14.777Z,0.77
2023-03-10T11:41:21.691Z,1.00
2023-03-10T11:43:49.686Z,0.80
2023-03-10T11:45:54.407Z,1.00
2023-03-10T11:48:14.857Z,0.77
2023-03-10T11:50:30.869Z,0.80
2023-03-10T11:52:33.354Z,0.80
2023-03-10T11:54:38.524Z,0.80
2023-03-10T11:56:40.531Z,1.00
2023-03-10T11:58:51.009Z,0.63
2023-03-10T12:00:54.037Z,0.95
2023-03-10T12:03:35.018Z,0.70
2023-03-10T12:05:43.920Z,0.80
2023-03-10T12:07:51.706Z,0.70
2023-03-10T12:09:58.598Z,0.80
2023-03-10T12:12:01.709Z,0.75
2023-03-10T12:14:04.091Z,0.77
2023-03-10T12:16:06.776Z,0.68
2023-03-10T12:18:08.790Z,0.70
2023-03-10T12:20:13.345Z,0.77
2023-03-10T12:22:25.129Z,1.15
2023-03-10T12:24:47.021Z,0.88
2023-03-10T12:26:49.998Z,0.60
2023-03-10T12:29:20.323Z,0.52
2023-03-10T12:31:42.254Z,0.68
2023-03-10T12:33:50.198Z,0.55
2023-03-10T12:35:55.107Z,0.65
2023-03-10T12:38:29.918Z,0.80
2023-03-10T12:43:58.673Z,0.90
2023-03-10T12:46:17.081Z,0.55
2023-03-10T12:48:36.428Z,0.75
2023-03-10T12:51:02.019Z,0.63
2023-03-10T12:53:53.892Z,1.40
2023-03-10T12:56:13.793Z,0.60
2023-03-10T12:58:19.895Z,0.60
2023-03-10T13:00:46.599Z,0.70
2023-03-10T13:03:03.773Z,0.60
2023-03-10T13:05:27.679Z,0.80
2023-03-10T13:07:49.970Z,0.60
2023-03-10T13:10:07.168Z,0.70
2023-03-10T13:12:35.952Z,0.70
2023-03-10T13:14:43.260Z,0.60
2023-03-10T13:17:27.011Z,0.60
2023-03-10T13:19:50.057Z,0.73
2023-03-10T13:21:54.606Z,0.80
2023-03-10T13:24:22.243Z,0.90
2023-03-10T13:29:14.931Z,0.70
2023-03-10T13:31:30.096Z,1.00
2023-03-10T13:33:37.425Z,0.90
2023-03-10T13:35:47.258Z,1.20
2023-03-10T13:38:10.319Z,1.00
2023-03-10T13:40:16.708Z,0.77
2023-03-10T13:42:40.889Z,1.10
2023-03-10T13:44:46.264Z,0.73
2023-03-10T13:47:02.168Z,1.00
2023-03-10T13:49:07.083Z,0.80
2023-03-10T13:51:22.618Z,0.70
2023-03-10T13:53:26.031Z,1.08
2023-03-10T13:55:28.817Z,0.80
2023-03-10T13:57:33.645Z,0.80
2023-03-10T13:59:35.508Z,0.60
2023-03-10T14:01:45.016Z,0.60
2023-03-10T14:03:57.844Z,0.70
2023-03-10T14:05:59.573Z,1.05
2023-03-10T14:08:01.635Z,0.60
2023-03-10T14:10:07.788Z,0.90
2023-03-10T14:12:10.501Z,0.80
2023-03-10T14:14:13.074Z,0.80
2023-03-10T14:16:15.015Z,0.95
2023-03-10T14:18:19.514Z,0.90
2023-03-10T14:20:34.983Z,0.77
2023-03-10T14:22:40.806Z,0.70
2023-03-10T14:24:42.393Z,0.65
2023-03-10T14:26:45.002Z,0.90
2023-03-10T14:28:46.704Z,0.85
2023-03-10T14:30:48.369Z,0.60
2023-03-10T14:32:50.298Z,0.70
2023-03-10T14:34:52.021Z,0.77
2023-03-10T14:36:53.625Z,0.82
2023-03-10T14:38:55.320Z,0.90
2023-03-10T14:40:57.445Z,1.23
2023-03-10T14:43:01.779Z,1.30
2023-03-10T14:45:07.675Z,1.38
2023-03-10T14:47:09.890Z,0.80
2023-03-10T14:49:15.517Z,1.10
2023-03-10T14:51:32.420Z,0.70
2023-03-10T14:53:36.012Z,1.00
2023-03-10T14:55:38.023Z,1.20
2023-03-10T14:57:40.332Z,1.20
2023-03-10T14:59:42.037Z,0.80
2023-03-10T15:01:43.740Z,1.10
2023-03-10T15:03:45.827Z,1.45
2023-03-10T15:05:49.292Z,1.00
2023-03-10T15:07:51.436Z,0.82
2023-03-10T15:10:05.337Z,1.45
2023-03-10T15:12:19.570Z,0.88
2023-03-10T15:14:21.319Z,1.23
2023-03-10T15:16:23.071Z,0.93
2023-03-10T15:18:27.074Z,0.70
2023-03-10T15:20:28.774Z,1.02
2023-03-10T15:22:30.582Z,1.35
2023-03-10T15:24:32.248Z,1.27
2023-03-10T15:26:34.290Z,1.25
2023-03-10T15:28:37.345Z,1.40
2023-03-10T15:30:39.067Z,1.60
2023-03-10T15:32:41.010Z,1.50
2023-03-10T15:34:42.680Z,1.33
2023-03-10T15:36:44.562Z,1.52
2023-03-10T15:38:46.272Z,1.33
2023-03-10T15:40:48.205Z,1.30
2023-03-10T15:42:50.448Z,1.00
2023-03-10T15:44:52.268Z,1.80
2023-03-10T15:46:55.060Z,1.67
2023-03-10T15:48:57.397Z,1.10
2023-03-10T15:50:59.133Z,1.38
2023-03-10T15:53:03.768Z,0.80
2023-03-10T15:55:06.676Z,1.38
2023-03-10T15:57:09.772Z,1.10
2023-03-10T15:59:11.530Z,1.85
2023-03-10T16:01:16.596Z,1.17
2023-03-10T16:03:18.562Z,2.10
2023-03-10T16:05:20.619Z,1.42
2023-03-10T16:07:22.224Z,1.83
2023-03-10T16:09:23.863Z,1.92
2023-03-10T16:11:25.722Z,1.30
2023-03-10T16:13:30.084Z,1.50
2023-03-10T16:15:31.726Z,2.10
2023-03-10T16:17:33.448Z,1.20
2023-03-10T16:19:35.312Z,1.60
2023-03-10T16:21:36.933Z,1.80
2023-03-10T16:23:38.826Z,1.48
2023-03-10T16:25:40.978Z,2.25
2023-03-10T16:27:46.410Z,1.77
2023-03-10T16:29:48.492Z,1.98
2023-03-10T16:31:50.161Z,1.70
2023-03-10T16:33:52.220Z,1.73
2023-03-10T16:35:54.005Z,1.65
2023-03-10T16:38:15.724Z,1.92
2023-03-10T16:40:40.280Z,1.77
2023-03-10T16:42:45.651Z,2.28
2023-03-10T16:44:47.620Z,1.50
2023-03-10T16:46:49.516Z,1.10
2023-03-10T16:48:53.681Z,1.95
2023-03-10T16:50:55.788Z,1.30
2023-03-10T16:52:57.561Z,1.30
2023-03-10T16:55:01.613Z,1.80
2023-03-10T16:57:06.716Z,1.60
2023-03-10T16:59:09.054Z,1.20
2023-03-10T17:01:10.791Z,1.60
2023-03-10T17:03:12.671Z,1.30
2023-03-10T17:05:15.460Z,1.38
2023-03-10T17:07:17.208Z,1.60
2023-03-10T17:09:18.952Z,1.63
2023-03-10T17:11:30.254Z,1.45
2023-03-10T17:13:32.131Z,1.27
2023-03-10T17:15:33.840Z,1.20
2023-03-10T17:17:35.651Z,1.30
2023-03-10T17:19:37.249Z,1.23
2023-03-10T17:21:40.242Z,1.10
2023-03-10T17:23:42.070Z,1.40
2023-03-10T17:25:44.452Z,1.40
2023-03-10T17:27:46.228Z,1.35
2023-03-10T17:29:48.133Z,1.23
2023-03-10T17:31:51.705Z,1.00
2023-03-10T17:33:55.810Z,1.35
2023-03-10T17:35:57.541Z,1.40
2023-03-10T17:37:59.164Z,1.58
2023-03-10T17:40:00.880Z,2.10
2023-03-10T17:42:03.382Z,1.50
2023-03-10T17:44:05.109Z,1.40
2023-03-10T17:46:09.055Z,1.38
2023-03-10T17:48:10.842Z,1.95
2023-03-10T17:50:12.456Z,1.60
2023-03-10T17:52:14.193Z,1.25
2023-03-10T17:54:20.275Z,1.30
2023-03-10T17:56:22.239Z,2.00
2023-03-10T17:58:26.996Z,1.08
2023-03-10T18:00:28.692Z,1.10
2023-03-10T18:02:30.548Z,1.10
2023-03-10T18:04:33.918Z,1.10
2023-03-10T18:06:36.606Z,0.98
2023-03-10T18:08:38.701Z,1.05
2023-03-10T18:10:41.001Z,1.02
2023-03-10T18:12:42.636Z,1.00
2023-03-10T18:14:44.391Z,1.40
2023-03-10T18:16:46.024Z,0.90
2023-03-10T18:18:48.133Z,0.85
2023-03-10T18:20:49.744Z,0.98
2023-03-10T18:22:52.014Z,0.85
2023-03-10T18:24:56.446Z,0.95
2023-03-10T18:26:58.044Z,1.00
2023-03-10T18:29:00.174Z,0.90
2023-03-10T18:31:02.944Z,0.90
2023-03-10T18:33:04.676Z,1.10
2023-03-10T18:35:06.998Z,0.88
2023-03-10T18:37:08.634Z,0.80
2023-03-10T18:39:11.222Z,0.77
2023-03-10T18:41:13.086Z,0.90
2023-03-10T18:43:14.877Z,1.15
2023-03-10T18:45:16.523Z,1.10
2023-03-10T18:47:18.291Z,0.90
2023-03-10T18:49:19.970Z,0.77
2023-03-10T18:51:27.032Z,1.00
2023-03-10T18:53:29.039Z,1.00
2023-03-10T18:55:30.682Z,1.10
2023-03-10T18:57:32.882Z,1.20
2023-03-10T18:59:34.530Z,0.98
2023-03-10T19:01:36.202Z,1.02
2023-03-10T19:03:38.333Z,1.15
2023-03-10T19:05:40.743Z,1.35
2023-03-10T19:07:42.498Z,1.20
2023-03-10T19:09:44.177Z,1.13
2023-03-10T19:11:46.376Z,1.60
2023-03-10T19:13:48.165Z,1.83
2023-03-10T19:15:49.807Z,1.73
2023-03-10T19:17:51.614Z,1.38
2023-03-10T19:19:53.711Z,1.35
2023-03-10T19:21:55.460Z,0.90
2023-03-10T19:23:57.143Z,1.33
2023-03-10T19:25:58.756Z,1.40
2023-03-10T19:28:00.375Z,1.65
2023-03-10T19:30:02.024Z,1.05
2023-03-10T19:32:03.933Z,1.30
2023-03-10T19:34:06.124Z,1.35
2023-03-10T19:36:11.951Z,1.20
2023-03-10T19:38:14.116Z,1.20
2023-03-10T19:40:19.835Z,1.63
2023-03-10T19:42:21.466Z,1.20
2023-03-10T19:44:23.240Z,1.60
2023-03-10T19:46:24.977Z,1.60
2023-03-10T19:48:26.614Z,1.30
2023-03-10T19:50:28.312Z,1.30
2023-03-10T19:52:29.908Z,1.35
2023-03-10T19:54:31.674Z,1.55
2023-03-10T19:56:33.390Z,1.63
2023-03-10T19:58:35.017Z,1.38
2023-03-10T20:00:36.713Z,1.40
2023-03-10T20:02:41.965Z,1.50
2023-03-10T20:04:44.628Z,1.33
2023-03-10T20:06:46.507Z,1.30
2023-03-10T20:08:48.238Z,1.42
2023-03-10T20:10:50.210Z,1.20
2023-03-10T20:12:51.974Z,1.30
2023-03-10T20:14:58.707Z,1.20
2023-03-10T20:17:00.461Z,1.40
2023-03-10T20:19:02.173Z,1.10
2023-03-10T20:21:04.462Z,1.10
2023-03-10T20:23:06.141Z,0.90
2023-03-10T20:25:09.470Z,1.00
2023-03-10T20:27:11.418Z,1.00
2023-03-10T20:29:15.296Z,0.90
2023-03-10T20:31:22.363Z,1.00
2023-03-10T20:33:27.399Z,1.10
2023-03-10T20:35:31.132Z,1.20
2023-03-10T20:37:34.722Z,1.48
2023-03-10T20:39:36.426Z,1.33
2023-03-10T20:41:38.059Z,1.35
2023-03-10T20:43:41.436Z,1.20
2023-03-10T20:45:43.271Z,1.40
2023-03-10T20:47:45.309Z,0.95
2023-03-10T20:49:46.980Z,1.05
2023-03-10T20:51:48.645Z,1.08
2023-03-10T20:53:51.973Z,1.17
2023-03-10T20:55:53.801Z,1.20
2023-03-10T20:57:57.814Z,1.10
2023-03-10T20:59:59.798Z,1.00
2023-03-10T21:02:01.590Z,1.00
2023-03-10T21:04:04.350Z,0.95
2023-03-10T21:06:06.149Z,0.90
2023-03-10T21:08:07.817Z,1.20
2023-03-10T21:10:11.951Z,1.25
2023-03-10T21:12:18.569Z,1.50
2023-03-10T21:14:20.232Z,1.13
2023-03-10T21:16:21.917Z,1.13
2023-03-10T21:18:23.984Z,1.00
2023-03-10T21:20:25.648Z,1.23
2023-03-10T21:22:30.397Z,1.27
2023-03-10T21:24:32.133Z,1.00
2023-03-10T21:26:34.071Z,1.17
2023-03-10T21:28:35.760Z,1.10
2023-03-10T21:30:38.824Z,1.50
2023-03-10T21:32:40.556Z,0.93
2023-03-10T21:34:42.434Z,0.98
2023-03-10T21:36:44.034Z,1.00
2023-03-10T21:38:49.016Z,0.80
2023-03-10T21:40:50.634Z,0.75
2023-03-10T21:42:52.405Z,1.15
2023-03-10T21:44:55.920Z,1.17
2023-03-10T21:46:57.479Z,0.90
2023-03-10T21:48:59.177Z,0.85
2023-03-10T21:51:00.825Z,1.05
2023-03-10T21:53:02.533Z,0.95
2023-03-10T21:55:04.852Z,1.27
2023-03-10T21:57:07.303Z,1.13
2023-03-10T21:59:08.992Z,1.10
2023-03-10T22:01:13.152Z,1.10
2023-03-10T22:03:15.183Z,1.20
2023-03-10T22:05:17.642Z,1.25
2023-03-10T22:07:19.350Z,1.17
2023-03-10T22:09:20.989Z,1.00
2023-03-10T22:11:22.647Z,1.35
2023-03-10T22:13:24.332Z,1.35
2023-03-10T22:15:27.274Z,1.20
2023-03-10T22:17:28.923Z,1.63
2023-03-10T22:19:30.498Z,1.17
2023-03-10T22:21:32.173Z,1.70
2023-03-10T22:23:33.827Z,1.42
2023-03-10T22:25:35.466Z,1.10
2023-03-10T22:27:37.056Z,1.23
2023-03-10T22:29:38.861Z,1.67
2023-03-10T22:31:40.496Z,1.10
2023-03-10T22:33:42.195Z,1.00
2023-03-10T22:35:51.256Z,1.20
2023-03-10T22:37:53.397Z,1.17
2023-03-10T22:39:55.064Z,1.20
2023-03-10T22:41:56.733Z,1.05
2023-03-10T22:43:58.658Z,1.40
2023-03-10T22:46:10.398Z,1.27
2023-03-10T22:48:12.188Z,1.63
2023-03-10T22:50:25.388Z,1.40
2023-03-10T22:52:27.132Z,1.42
2023-03-10T22:54:28.770Z,1.27
2023-03-10T22:56:30.420Z,1.20
2023-03-10T22:58:32.196Z,1.13
2023-03-10T23:00:34.205Z,1.00
2023-03-10T23:02:35.821Z,1.15
2023-03-10T23:04:37.504Z,1.00
2023-03-10T23:06:39.164Z,1.33
2023-03-10T23:08:43.795Z,1.00
2023-03-10T23:10:45.491Z,1.42
2023-03-10T23:12:47.325Z,0.95
2023-03-10T23:14:48.953Z,1.23
2023-03-10T23:16:50.547Z,1.08
2023-03-10T23:18:52.154Z,1.30
2023-03-10T23:20:53.821Z,1.67
2023-03-10T23:22:56.791Z,1.00
2023-03-10T23:24:58.416Z,1.00
2023-03-10T23:27:00.047Z,1.20
2023-03-10T23:29:04.489Z,1.38
2023-03-10T23:31:07.119Z,0.95
2023-03-10T23:33:12.327Z,0.90
2023-03-10T23:35:16.292Z,1.92
2023-03-10T23:37:17.868Z,1.25
2023-03-10T23:39:19.664Z,1.10
2023-03-10T23:41:21.241Z,0.90
2023-03-10T23:43:23.305Z,1.30
2023-03-10T23:45:26.694Z,1.25
2023-03-10T23:47:28.345Z,1.10
2023-03-10T23:49:29.966Z,1.23
2023-03-10T23:51:31.725Z,1.27
2023-03-10T23:53:33.543Z,1.42
2023-03-10T23:55:37.339Z,1.38
2023-03-10T23:57:38.956Z,1.15
2023-03-10T23:59:41.649Z,1.27
